Time;durP1;ratioP1;P1;durP2;ratioP2;P2;SDS_P1;SDS_P2;PMS_P1;PMS_P2;Temp;Humidity;BMP_temperature;BMP_pressure;BME280_temperature;BME280_humidity;BME280_pressure;Samples;Min_cycle;Max_cycle;Signal;HPM_P1;HPM_P2
2022/12/24 03:02:40;;;;;;;11.33;10.73;;;9.10;99.90;;;;;;5098504;23;20306;-84
2022/12/24 03:05:16;;;;;;;11.17;10.50;;;9.10;99.90;;;;;;4912391;29;20660;-82
2022/12/24 03:07:48;;;;;;;11.27;10.57;;;9.10;99.90;;;;;;4918155;29;20260;-82
2022/12/24 03:10:21;;;;;;;11.50;10.80;;;9.10;99.90;;;;;;4926095;29;20207;-82
2022/12/24 03:12:52;;;;;;;11.30;10.50;;;9.10;99.90;;;;;;4897273;29;20283;-84
2022/12/24 03:15:22;;;;;;;11.50;10.60;;;9.00;99.90;;;;;;4896435;29;20204;-84
2022/12/24 03:17:56;;;;;;;11.80;11.00;;;9.00;99.90;;;;;;4897140;29;20303;-84
2022/12/24 03:20:28;;;;;;;11.50;10.87;;;9.00;99.90;;;;;;4910277;29;20231;-85
2022/12/24 03:22:55;;;;;;;11.17;10.50;;;9.00;99.90;;;;;;4898348;29;20200;-83
2022/12/24 03:25:25;;;;;;;11.30;10.60;;;9.00;99.90;;;;;;4903369;29;20220;-83
2022/12/24 03:27:53;;;;;;;11.20;10.50;;;9.10;99.90;;;;;;4906118;29;20228;-83
2022/12/24 03:30:21;;;;;;;11.80;11.10;;;9.10;99.90;;;;;;4904692;29;20204;-82
2022/12/24 03:32:47;;;;;;;11.07;10.30;;;9.10;99.90;;;;;;4911525;29;20220;-84
2022/12/24 03:35:16;;;;;;;11.03;10.30;;;9.20;99.90;;;;;;4899811;29;20214;-83
2022/12/24 03:37:43;;;;;;;11.50;10.63;;;9.20;99.90;;;;;;4904841;29;20210;-83
2022/12/24 03:40:11;;;;;;;11.20;10.50;;;9.20;99.90;;;;;;4907135;29;20208;-83
2022/12/24 03:42:38;;;;;;;10.90;10.17;;;9.20;99.90;;;;;;4905613;29;20226;-83
2022/12/24 03:45:06;;;;;;;10.97;10.17;;;9.30;99.90;;;;;;4901847;29;20294;-81
2022/12/24 03:47:33;;;;;;;11.80;10.80;;;9.30;99.90;;;;;;4906503;29;20205;-82
2022/12/24 03:50:00;;;;;;;11.20;10.60;;;9.40;99.90;;;;;;4901416;29;20192;-82
2022/12/24 03:52:28;;;;;;;12.00;11.10;;;9.40;99.90;;;;;;4898919;29;20296;-83
2022/12/24 03:54:55;;;;;;;11.27;10.50;;;9.40;99.90;;;;;;4898055;29;20208;-82
2022/12/24 03:57:22;;;;;;;11.43;10.63;;;9.40;99.90;;;;;;4903221;29;20599;-83
2022/12/24 03:59:49;;;;;;;11.33;10.53;;;9.40;99.90;;;;;;4897769;29;20218;-83
2022/12/24 04:02:16;;;;;;;12.53;11.33;;;9.40;99.90;;;;;;4905653;29;20326;-85
2022/12/24 04:04:43;;;;;;;11.70;10.80;;;9.40;99.90;;;;;;4902063;29;20597;-84
2022/12/24 04:07:10;;;;;;;11.30;10.43;;;9.40;99.90;;;;;;4905442;29;20236;-84
2022/12/24 04:09:39;;;;;;;10.97;10.30;;;9.40;99.90;;;;;;4912489;29;20291;-84
2022/12/24 04:12:06;;;;;;;11.40;10.60;;;9.40;99.90;;;;;;4905915;29;20221;-83
2022/12/24 04:14:34;;;;;;;11.00;10.40;;;9.40;99.90;;;;;;4901696;29;20231;-84
2022/12/24 04:17:01;;;;;;;11.20;10.20;;;9.40;99.90;;;;;;4901760;29;20216;-84
2022/12/24 04:19:28;;;;;;;11.10;10.37;;;9.40;99.90;;;;;;4902560;29;20235;-84
2022/12/24 04:21:55;;;;;;;11.97;11.13;;;9.40;99.90;;;;;;4902022;29;20228;-84
2022/12/24 04:24:22;;;;;;;11.53;10.80;;;9.40;99.90;;;;;;4909413;29;20213;-84
2022/12/24 04:26:51;;;;;;;11.53;10.73;;;9.40;99.90;;;;;;4909088;29;20240;-84
2022/12/24 04:29:18;;;;;;;12.20;11.30;;;9.40;99.90;;;;;;4913351;29;20198;-85
2022/12/24 04:31:45;;;;;;;12.00;11.10;;;9.40;99.90;;;;;;4905501;29;20306;-85
2022/12/24 04:34:11;;;;;;;11.40;10.63;;;9.40;99.90;;;;;;4903340;29;20193;-84
2022/12/24 04:36:38;;;;;;;11.43;10.53;;;9.40;99.90;;;;;;4906002;29;20201;-85
2022/12/24 04:39:06;;;;;;;11.33;10.63;;;9.40;99.90;;;;;;4909791;29;20204;-84
2022/12/24 04:41:34;;;;;;;11.43;10.70;;;9.30;99.90;;;;;;4904577;29;20623;-84
2022/12/24 04:44:02;;;;;;;11.90;11.03;;;9.30;99.90;;;;;;4905219;29;20211;-84
2022/12/24 04:46:30;;;;;;;11.70;11.00;;;9.30;99.90;;;;;;4901938;29;20193;-84
2022/12/24 04:48:58;;;;;;;11.87;11.07;;;9.20;99.90;;;;;;4901264;29;20220;-84
2022/12/24 04:51:26;;;;;;;11.70;10.90;;;9.30;99.90;;;;;;4908351;29;20296;-83
2022/12/24 04:53:54;;;;;;;11.77;10.97;;;9.30;99.90;;;;;;4908175;29;20364;-84
2022/12/24 04:56:22;;;;;;;12.33;11.40;;;9.30;99.90;;;;;;4912762;29;20205;-84
2022/12/24 04:58:50;;;;;;;11.50;10.70;;;9.20;99.90;;;;;;4924411;29;20291;-84
2022/12/24 05:01:20;;;;;;;12.03;11.23;;;9.20;99.90;;;;;;4903365;29;20224;-84
2022/12/24 05:03:48;;;;;;;11.87;11.00;;;9.20;99.90;;;;;;4900740;29;20207;-84
2022/12/24 05:06:17;;;;;;;11.27;10.57;;;9.20;99.90;;;;;;4909135;29;20669;-84
2022/12/24 05:08:44;;;;;;;11.90;11.00;;;9.10;99.90;;;;;;4904359;29;20208;-84
2022/12/24 05:11:13;;;;;;;12.17;11.23;;;9.10;99.90;;;;;;4909322;29;20323;-84
2022/12/24 05:13:40;;;;;;;11.43;10.63;;;9.10;99.90;;;;;;4900338;29;20199;-84
2022/12/24 05:16:08;;;;;;;11.57;10.60;;;9.10;99.90;;;;;;4899501;29;20208;-83
2022/12/24 05:18:37;;;;;;;11.17;10.47;;;9.20;99.90;;;;;;4904563;29;20209;-83
2022/12/24 05:21:07;;;;;;;10.97;10.17;;;9.20;99.90;;;;;;4891805;29;20705;-83
2022/12/24 05:26:23;;;;;;;11.00;10.20;;;9.30;99.90;;;;;;4875755;29;20732;-83
2022/12/24 05:28:50;;;;;;;11.40;10.57;;;9.30;99.90;;;;;;4901648;29;20188;-83
2022/12/24 05:31:17;;;;;;;11.23;10.40;;;9.30;99.90;;;;;;4899262;29;20216;-83
2022/12/24 05:33:46;;;;;;;11.37;10.50;;;9.30;99.90;;;;;;4908519;29;20212;-83
2022/12/24 05:36:13;;;;;;;12.07;11.10;;;9.30;99.90;;;;;;4908996;29;20243;-84
2022/12/24 05:38:40;;;;;;;12.97;11.93;;;9.30;99.90;;;;;;4909338;29;20204;-83
2022/12/24 05:41:08;;;;;;;12.37;11.50;;;9.30;99.90;;;;;;4895819;29;20773;-80
2022/12/24 05:43:35;;;;;;;12.37;11.40;;;9.30;99.90;;;;;;4906945;29;20210;-80
2022/12/24 05:46:04;;;;;;;12.43;11.60;;;9.30;99.90;;;;;;4898123;29;20709;-81
2022/12/24 05:48:30;;;;;;;12.10;11.20;;;9.20;99.90;;;;;;4913076;29;20749;-80
2022/12/24 05:50:58;;;;;;;12.23;11.13;;;9.20;99.90;;;;;;4900444;29;20277;-80
2022/12/24 05:53:26;;;;;;;12.00;11.00;;;9.20;99.90;;;;;;4900659;29;20196;-80
2022/12/24 05:55:52;;;;;;;12.00;11.10;;;9.10;99.90;;;;;;4899588;29;20339;-79
2022/12/24 05:58:19;;;;;;;11.50;10.80;;;9.10;99.90;;;;;;4897961;29;20662;-80
2022/12/24 06:00:46;;;;;;;11.70;10.90;;;9.10;99.90;;;;;;4898101;29;20308;-80
2022/12/24 06:03:13;;;;;;;11.70;11.00;;;9.00;99.90;;;;;;4903148;29;20225;-80
2022/12/24 06:05:40;;;;;;;12.23;11.10;;;9.00;99.90;;;;;;4911686;29;20192;-81
2022/12/24 06:08:08;;;;;;;12.17;11.30;;;9.00;99.90;;;;;;4901454;29;20207;-81
2022/12/24 06:10:35;;;;;;;11.70;10.90;;;9.00;99.90;;;;;;4897784;29;20265;-81
2022/12/24 06:13:02;;;;;;;12.20;11.40;;;8.90;99.90;;;;;;4898386;29;20205;-81
2022/12/24 06:15:28;;;;;;;12.33;11.57;;;8.90;99.90;;;;;;4897074;29;20324;-80
2022/12/24 06:17:55;;;;;;;12.37;11.40;;;8.90;99.90;;;;;;4898843;29;20217;-80
2022/12/24 06:20:22;;;;;;;12.57;11.57;;;8.90;99.90;;;;;;4902066;29;20260;-79
2022/12/24 06:22:49;;;;;;;13.77;12.57;;;8.90;99.90;;;;;;4902230;29;20224;-80
2022/12/24 06:25:17;;;;;;;12.93;11.93;;;8.90;99.90;;;;;;4912450;29;20208;-79
2022/12/24 06:27:44;;;;;;;12.87;11.70;;;8.90;99.90;;;;;;4899431;29;20193;-79
2022/12/24 06:30:11;;;;;;;12.97;11.87;;;8.90;99.90;;;;;;4900649;29;20204;-79
2022/12/24 06:32:38;;;;;;;13.03;11.80;;;8.80;99.90;;;;;;4895930;29;20212;-78
2022/12/24 06:35:05;;;;;;;12.60;11.50;;;8.80;99.90;;;;;;4896002;29;20209;-79
2022/12/24 06:37:32;;;;;;;12.07;11.23;;;8.80;99.90;;;;;;4898106;29;20232;-79
2022/12/24 06:39:59;;;;;;;12.20;11.30;;;8.80;99.90;;;;;;4896896;29;20677;-79
2022/12/24 06:42:27;;;;;;;12.37;11.47;;;8.80;99.90;;;;;;4899189;29;20220;-78
2022/12/24 06:44:53;;;;;;;12.00;11.30;;;8.80;99.90;;;;;;4901000;29;20209;-79
2022/12/24 06:47:20;;;;;;;12.87;12.00;;;8.80;99.90;;;;;;4897631;29;20207;-78
2022/12/24 06:49:47;;;;;;;12.30;11.50;;;8.80;99.90;;;;;;4898747;29;20261;-78
2022/12/24 06:52:14;;;;;;;12.90;12.00;;;8.70;99.90;;;;;;4894869;29;20212;-77
2022/12/24 06:54:41;;;;;;;13.10;12.20;;;8.70;99.90;;;;;;4897781;29;20239;-78
2022/12/24 06:57:08;;;;;;;13.20;12.20;;;8.70;99.90;;;;;;4906209;29;20253;-78
2022/12/24 06:59:36;;;;;;;12.53;11.80;;;8.70;99.90;;;;;;4904007;29;20208;-78
2022/12/24 07:02:03;;;;;;;12.70;11.83;;;8.70;99.90;;;;;;4897640;29;20283;-78
2022/12/24 07:04:30;;;;;;;13.00;12.07;;;8.70;99.90;;;;;;4897641;29;20205;-79
2022/12/24 07:06:57;;;;;;;13.00;12.10;;;8.70;99.90;;;;;;4897258;29;20208;-82
2022/12/24 07:09:23;;;;;;;14.00;13.00;;;8.80;99.90;;;;;;4896012;29;20200;-81
2022/12/24 07:11:50;;;;;;;13.00;12.20;;;8.80;99.90;;;;;;4896393;29;20265;-80
2022/12/24 07:14:17;;;;;;;13.43;12.50;;;8.90;99.90;;;;;;4898753;29;20252;-80
2022/12/24 07:16:45;;;;;;;12.87;12.07;;;8.90;99.90;;;;;;4895979;29;20213;-82
2022/12/24 07:19:12;;;;;;;13.30;12.40;;;8.90;99.90;;;;;;4907095;29;20204;-82
2022/12/24 07:21:39;;;;;;;12.47;11.67;;;8.90;99.90;;;;;;4900403;29;20220;-82
2022/12/24 07:24:06;;;;;;;12.60;11.70;;;8.90;99.90;;;;;;4896091;29;20410;-82
2022/12/24 07:26:33;;;;;;;12.77;11.87;;;8.90;99.90;;;;;;4901517;29;20246;-82
2022/12/24 07:29:00;;;;;;;12.40;11.60;;;8.90;99.90;;;;;;4894610;29;20221;-79
2022/12/24 07:31:27;;;;;;;12.87;11.97;;;8.90;99.90;;;;;;4896134;29;20732;-80
2022/12/24 07:33:55;;;;;;;12.90;12.07;;;8.90;99.90;;;;;;4891549;29;20224;-83
2022/12/24 07:36:23;;;;;;;13.90;12.70;;;8.90;99.90;;;;;;4909594;29;20217;-81
2022/12/24 07:38:51;;;;;;;13.17;12.37;;;8.90;99.90;;;;;;4911684;29;20208;-80
2022/12/24 07:41:18;;;;;;;12.83;11.83;;;8.90;99.90;;;;;;4901189;29;20224;-79
2022/12/24 07:43:45;;;;;;;13.73;12.60;;;8.90;99.90;;;;;;4910444;29;20229;-82
2022/12/24 07:46:12;;;;;;;12.83;12.07;;;8.90;99.90;;;;;;4896701;29;20709;-81
2022/12/24 07:48:39;;;;;;;13.60;12.40;;;8.90;99.90;;;;;;4901741;29;20211;-81
2022/12/24 07:51:08;;;;;;;13.33;12.40;;;9.00;99.90;;;;;;4895895;29;20645;-83
2022/12/24 07:53:35;;;;;;;13.67;12.67;;;9.00;99.90;;;;;;4896183;29;20674;-82
2022/12/24 07:56:01;;;;;;;13.00;11.93;;;9.00;99.90;;;;;;4896319;29;20654;-81
2022/12/24 07:58:28;;;;;;;13.43;12.33;;;9.00;99.90;;;;;;4897199;29;20228;-82
2022/12/24 08:00:56;;;;;;;13.23;12.20;;;9.00;99.90;;;;;;4896246;29;20587;-82
2022/12/24 08:03:23;;;;;;;13.27;12.27;;;9.10;99.90;;;;;;4897520;29;20208;-81
2022/12/24 08:05:52;;;;;;;12.67;11.87;;;9.10;99.90;;;;;;4896984;29;20204;-80
2022/12/24 08:08:21;;;;;;;12.30;11.57;;;9.10;99.90;;;;;;4896178;29;20302;-80
2022/12/24 08:10:48;;;;;;;13.00;11.97;;;9.20;99.90;;;;;;4894005;29;20281;-81
2022/12/24 08:13:15;;;;;;;12.80;12.00;;;9.20;99.90;;;;;;4897525;29;20606;-80
2022/12/24 08:15:42;;;;;;;12.73;11.73;;;9.20;99.90;;;;;;4893837;29;20228;-79
2022/12/24 08:18:09;;;;;;;13.10;12.13;;;9.30;99.90;;;;;;4898697;29;20205;-80
2022/12/24 08:20:38;;;;;;;13.03;12.03;;;9.30;99.90;;;;;;4897401;29;20260;-84
2022/12/24 08:23:05;;;;;;;12.77;11.97;;;9.30;99.90;;;;;;4905508;29;20272;-85
2022/12/24 08:25:33;;;;;;;12.40;11.50;;;9.40;99.90;;;;;;4896098;29;20288;-81
2022/12/24 08:28:00;;;;;;;12.80;11.90;;;9.40;99.90;;;;;;4900300;29;20244;-83
2022/12/24 08:30:27;;;;;;;12.70;11.90;;;9.50;99.90;;;;;;4895760;29;20765;-82
2022/12/24 08:32:54;;;;;;;12.70;11.73;;;9.60;99.90;;;;;;4896488;29;20757;-83
2022/12/24 08:35:21;;;;;;;13.73;12.73;;;9.60;99.90;;;;;;4912044;29;20200;-82
2022/12/24 08:37:48;;;;;;;13.90;12.83;;;9.60;99.90;;;;;;4894208;29;20208;-83
2022/12/24 08:40:15;;;;;;;13.23;12.33;;;9.70;99.90;;;;;;4892809;29;20276;-81
2022/12/24 08:42:43;;;;;;;13.80;12.70;;;9.70;99.90;;;;;;4894982;29;20690;-81
2022/12/24 08:45:11;;;;;;;14.30;13.10;;;9.70;99.90;;;;;;4894908;29;20201;-81
2022/12/24 08:47:38;;;;;;;13.50;12.30;;;9.80;99.90;;;;;;4897516;29;20287;-82
2022/12/24 08:50:06;;;;;;;13.07;12.03;;;9.80;99.90;;;;;;4898557;29;20205;-82
2022/12/24 08:52:33;;;;;;;12.77;11.73;;;9.90;99.90;;;;;;4899034;29;20212;-82
2022/12/24 08:55:00;;;;;;;12.73;11.77;;;9.90;99.90;;;;;;4909158;29;20201;-80
2022/12/24 08:57:26;;;;;;;12.47;11.40;;;10.00;99.90;;;;;;4899359;29;20201;-79
2022/12/24 08:59:55;;;;;;;13.13;12.03;;;10.00;99.90;;;;;;4899593;29;20204;-81
2022/12/24 09:02:21;;;;;;;12.60;11.60;;;10.10;99.90;;;;;;4900278;29;20233;-80
2022/12/24 09:04:48;;;;;;;13.30;12.10;;;10.10;99.90;;;;;;4900417;29;20685;-81
2022/12/24 09:07:15;;;;;;;12.90;11.93;;;10.20;99.90;;;;;;4906100;29;20213;-83
2022/12/24 09:09:42;;;;;;;12.77;11.80;;;10.30;99.90;;;;;;4904213;29;20213;-83
2022/12/24 09:12:09;;;;;;;12.83;11.73;;;10.40;99.90;;;;;;4897469;29;20257;-83
2022/12/24 09:14:36;;;;;;;13.73;12.57;;;10.60;99.90;;;;;;4897557;29;20265;-81
2022/12/24 09:17:04;;;;;;;13.27;12.27;;;10.60;99.90;;;;;;4898354;29;20835;-79
2022/12/24 09:19:33;;;;;;;14.47;12.53;;;10.70;99.90;;;;;;4902449;29;20279;-78
2022/12/24 09:22:00;;;;;;;13.60;12.47;;;10.80;99.90;;;;;;4906449;29;20280;-78
2022/12/24 09:24:26;;;;;;;13.17;12.17;;;10.90;99.90;;;;;;4909815;29;20267;-79
2022/12/24 09:26:53;;;;;;;13.17;12.07;;;10.90;99.90;;;;;;4906208;29;20268;-79
2022/12/24 09:29:20;;;;;;;12.73;11.80;;;10.90;99.90;;;;;;4909562;29;20216;-77
2022/12/24 09:31:47;;;;;;;12.47;11.57;;;10.90;99.90;;;;;;4907463;29;20228;-79
2022/12/24 09:34:15;;;;;;;13.33;11.97;;;10.90;99.90;;;;;;4903890;29;20204;-79
2022/12/24 09:36:42;;;;;;;12.77;11.87;;;11.00;99.90;;;;;;4906342;29;20689;-79
2022/12/24 09:39:08;;;;;;;12.40;11.50;;;11.00;99.90;;;;;;4907540;29;20225;-79
2022/12/24 09:41:45;;;;;;;12.47;11.67;;;10.90;99.90;;;;;;4907151;29;20217;-79
2022/12/24 09:44:22;;;;;;;13.43;12.40;;;10.90;99.90;;;;;;4909128;29;20220;-78
2022/12/24 09:46:52;;;;;;;12.40;11.50;;;10.90;99.90;;;;;;4908195;29;20681;-79
2022/12/24 09:49:25;;;;;;;12.80;11.80;;;10.90;99.90;;;;;;4911262;29;20201;-78
2022/12/24 09:51:56;;;;;;;12.10;11.30;;;10.90;99.90;;;;;;4903800;29;20287;-79
2022/12/24 09:54:28;;;;;;;12.30;11.50;;;10.80;99.90;;;;;;4908732;29;20225;-79
2022/12/24 09:56:57;;;;;;;12.37;11.43;;;10.80;99.90;;;;;;4907612;29;20241;-79
2022/12/24 09:59:28;;;;;;;12.30;11.40;;;10.80;99.90;;;;;;4906740;29;20210;-79
2022/12/24 10:01:55;;;;;;;12.13;11.20;;;10.80;99.90;;;;;;4908645;29;20232;-79
2022/12/24 10:04:28;;;;;;;12.80;11.80;;;10.70;99.90;;;;;;4903464;29;20261;-79
2022/12/24 10:07:03;;;;;;;12.27;11.40;;;10.70;99.90;;;;;;4903018;29;20210;-80
2022/12/24 10:09:41;;;;;;;12.00;11.30;;;10.70;99.90;;;;;;4906176;29;20205;-79
2022/12/24 10:12:20;;;;;;;11.80;11.00;;;10.90;99.90;;;;;;4895792;29;20604;-85
2022/12/24 10:14:59;;;;;;;12.10;11.30;;;11.00;99.90;;;;;;4900369;29;20245;-81
2022/12/24 10:17:41;;;;;;;12.30;11.30;;;11.10;99.90;;;;;;4899485;29;20237;-84
2022/12/24 10:20:42;;;;;;;12.77;11.87;;;11.30;99.90;;;;;;4908328;29;20673;-84
2022/12/24 10:23:18;;;;;;;12.70;11.60;;;11.50;99.90;;;;;;4904260;29;20244;-81
2022/12/24 10:25:52;;;;;;;12.60;11.53;;;11.70;99.90;;;;;;4905388;29;20209;-83
2022/12/24 10:28:24;;;;;;;12.60;11.60;;;11.80;99.90;;;;;;4909319;29;20253;-83
2022/12/24 10:30:58;;;;;;;12.17;11.27;;;11.90;99.90;;;;;;4906059;29;20238;-83
2022/12/24 10:33:32;;;;;;;13.13;11.80;;;11.90;99.90;;;;;;4906346;29;20202;-84
2022/12/24 10:36:00;;;;;;;12.97;11.97;;;11.90;99.90;;;;;;4907627;29;20725;-84
2022/12/24 10:38:27;;;;;;;12.17;11.17;;;11.90;99.90;;;;;;4903221;29;20194;-85
2022/12/24 10:40:56;;;;;;;12.97;11.87;;;11.90;99.90;;;;;;4899665;29;20228;-85
2022/12/24 10:43:25;;;;;;;13.10;12.10;;;12.00;99.90;;;;;;4914380;29;20270;-83
2022/12/24 10:45:56;;;;;;;12.20;11.20;;;12.10;99.90;;;;;;4908540;29;20226;-82
2022/12/24 10:48:28;;;;;;;12.40;11.50;;;12.10;99.90;;;;;;4907761;29;20209;-83
2022/12/24 10:51:02;;;;;;;12.17;11.20;;;12.10;99.90;;;;;;4895149;29;20855;-82
2022/12/24 10:53:38;;;;;;;13.57;12.37;;;12.10;99.90;;;;;;4908403;29;20237;-83
2022/12/24 10:56:08;;;;;;;12.80;11.70;;;12.10;99.90;;;;;;4900790;29;20210;-83
2022/12/24 10:58:36;;;;;;;12.33;11.33;;;12.10;99.90;;;;;;4904469;29;20213;-83
2022/12/24 11:01:03;;;;;;;12.83;11.63;;;12.10;99.90;;;;;;4897075;29;20302;-85
2022/12/24 11:03:33;;;;;;;13.27;11.97;;;12.20;99.90;;;;;;4899881;29;20216;-84
2022/12/24 11:06:09;;;;;;;12.47;11.37;;;12.20;99.90;;;;;;4906672;29;20246;-83
2022/12/24 11:08:38;;;;;;;13.03;11.87;;;12.30;99.90;;;;;;4889574;29;20205;-82
2022/12/24 11:11:07;;;;;;;13.03;11.83;;;12.30;99.90;;;;;;4910154;29;20226;-81
2022/12/24 11:13:37;;;;;;;15.10;12.07;;;12.30;99.90;;;;;;4905975;29;20211;-82
2022/12/24 11:16:07;;;;;;;13.10;11.80;;;12.20;99.90;;;;;;4900071;29;20208;-81
2022/12/24 11:18:38;;;;;;;12.00;11.07;;;12.30;99.90;;;;;;4925341;29;20584;-81
2022/12/24 11:21:06;;;;;;;12.73;11.57;;;12.30;99.90;;;;;;4909672;29;20711;-81
2022/12/24 11:23:33;;;;;;;13.13;11.97;;;12.30;99.90;;;;;;4905867;29;20688;-82
2022/12/24 11:26:01;;;;;;;12.73;11.53;;;12.30;99.90;;;;;;4909666;29;20204;-81
2022/12/24 11:28:30;;;;;;;13.07;11.87;;;12.30;99.90;;;;;;4901440;29;20196;-81
2022/12/24 11:31:02;;;;;;;12.40;11.40;;;12.40;99.90;;;;;;4907604;29;20764;-82
2022/12/24 11:33:30;;;;;;;13.00;11.83;;;12.40;99.90;;;;;;4900090;29;20192;-81
2022/12/24 11:36:01;;;;;;;12.80;11.70;;;12.40;99.90;;;;;;4908428;29;20212;-80
2022/12/24 11:38:32;;;;;;;13.30;12.07;;;12.50;99.90;;;;;;4902958;29;20243;-80
2022/12/24 11:41:10;;;;;;;13.00;12.10;;;12.60;99.90;;;;;;4908037;29;20723;-80
2022/12/24 11:43:44;;;;;;;12.93;11.97;;;12.70;99.90;;;;;;4897328;29;20214;-81
2022/12/24 11:46:35;;;;;;;13.37;12.17;;;12.70;99.90;;;;;;4905287;29;20207;-81
2022/12/24 11:49:24;;;;;;;12.80;11.63;;;12.80;99.90;;;;;;4898893;29;20730;-82
2022/12/24 11:52:22;;;;;;;12.93;11.73;;;12.80;99.90;;;;;;4900345;29;20729;-82
2022/12/24 11:55:10;;;;;;;12.27;11.27;;;13.00;99.90;;;;;;4891322;29;20204;-82
2022/12/24 11:57:43;;;;;;;11.63;10.83;;;13.00;99.90;;;;;;4905409;29;20240;-81
2022/12/24 12:00:14;;;;;;;11.40;10.60;;;13.00;99.90;;;;;;4898442;29;20211;-79
2022/12/24 12:02:46;;;;;;;12.73;11.53;;;13.00;99.90;;;;;;4904711;29;20231;-77
2022/12/24 12:05:18;;;;;;;12.60;11.40;;;12.90;99.90;;;;;;4905069;29;20212;-77
2022/12/24 12:07:48;;;;;;;12.30;11.40;;;12.90;99.90;;;;;;4905849;29;20222;-77
2022/12/24 12:10:20;;;;;;;12.00;11.10;;;12.80;99.90;;;;;;4902207;29;20212;-79
2022/12/24 12:12:54;;;;;;;12.50;11.30;;;12.80;99.90;;;;;;4902132;29;20294;-80
2022/12/24 12:15:25;;;;;;;12.43;11.47;;;12.80;99.90;;;;;;4904044;29;20214;-82
2022/12/24 12:17:57;;;;;;;12.03;11.13;;;12.80;99.90;;;;;;4906188;29;20200;-80
2022/12/24 12:20:28;;;;;;;12.00;11.00;;;12.80;99.90;;;;;;4906537;29;20200;-80
2022/12/24 12:23:00;;;;;;;12.33;11.30;;;12.80;99.90;;;;;;4906478;29;20208;-80
2022/12/24 12:25:33;;;;;;;12.77;11.70;;;12.80;99.90;;;;;;4902073;29;20240;-81
2022/12/24 12:28:03;;;;;;;11.93;11.03;;;12.80;99.90;;;;;;4913236;29;20200;-80
2022/12/24 12:30:31;;;;;;;13.53;12.20;;;12.90;99.90;;;;;;4909185;29;20260;-81
2022/12/24 12:33:02;;;;;;;12.80;11.70;;;12.90;99.90;;;;;;4917785;29;20548;-79
2022/12/24 12:35:33;;;;;;;12.50;11.40;;;12.90;99.90;;;;;;4907704;29;20740;-78
2022/12/24 12:38:03;;;;;;;11.80;10.90;;;12.90;99.90;;;;;;4908699;29;20674;-80
2022/12/24 12:40:46;;;;;;;11.90;10.90;;;12.90;99.90;;;;;;4913367;29;20197;-81
2022/12/24 12:43:25;;;;;;;11.50;10.70;;;12.90;99.90;;;;;;4900686;29;20212;-81
2022/12/24 12:45:58;;;;;;;11.57;10.40;;;12.90;99.90;;;;;;4911905;29;20191;-80
2022/12/24 12:48:47;;;;;;;11.67;10.57;;;12.90;99.90;;;;;;4904145;29;20304;-79
2022/12/24 12:51:19;;;;;;;12.60;11.07;;;12.90;99.90;;;;;;4906311;29;20232;-80
2022/12/24 12:54:08;;;;;;;11.50;10.47;;;12.70;99.90;;;;;;4907684;29;20204;-81
2022/12/24 12:56:38;;;;;;;12.50;11.13;;;12.70;99.90;;;;;;4915663;29;20232;-81
2022/12/24 12:59:13;;;;;;;11.90;10.90;;;12.60;99.90;;;;;;4911783;29;20234;-83
2022/12/24 13:01:46;;;;;;;12.27;11.00;;;12.50;99.90;;;;;;4902428;29;20231;-82
2022/12/24 13:04:57;;;;;;;11.77;10.90;;;12.40;99.90;;;;;;4917459;29;20210;-81
2022/12/24 13:08:07;;;;;;;11.67;10.57;;;12.20;99.90;;;;;;4900538;29;20203;-81
2022/12/24 13:11:08;;;;;;;12.00;11.00;;;12.10;99.90;;;;;;4901035;29;20257;-82
2022/12/24 13:14:17;;;;;;;11.27;10.33;;;12.00;99.90;;;;;;4905526;29;20206;-81
2022/12/24 13:17:04;;;;;;;12.10;11.03;;;11.90;99.90;;;;;;4911479;29;20202;-81
2022/12/24 13:19:45;;;;;;;12.30;11.27;;;11.90;99.90;;;;;;4910430;29;20627;-83
2022/12/24 13:22:16;;;;;;;11.73;10.77;;;11.80;99.90;;;;;;4916748;29;20253;-82
2022/12/24 13:24:49;;;;;;;11.77;10.73;;;11.70;99.90;;;;;;4908162;29;20242;-83
2022/12/24 13:27:19;;;;;;;11.23;10.30;;;11.70;99.90;;;;;;4908968;29;20906;-79
2022/12/24 13:29:55;;;;;;;11.40;10.50;;;11.60;99.90;;;;;;4903528;29;20225;-78
2022/12/24 13:32:48;;;;;;;11.43;10.40;;;11.50;99.90;;;;;;4897357;29;20238;-79
2022/12/24 13:35:33;;;;;;;11.30;10.33;;;11.50;99.90;;;;;;4902712;29;20198;-77
2022/12/24 13:38:32;;;;;;;12.43;11.17;;;11.50;99.90;;;;;;4912477;29;20271;-78
2022/12/24 13:41:32;;;;;;;11.30;10.50;;;11.40;99.90;;;;;;4918680;29;20295;-79
2022/12/24 13:44:03;;;;;;;10.90;10.10;;;11.40;99.90;;;;;;4908872;29;20225;-82
2022/12/24 13:46:50;;;;;;;11.30;10.20;;;11.40;99.90;;;;;;4903082;29;20222;-80
2022/12/24 13:49:21;;;;;;;11.10;10.20;;;11.40;99.90;;;;;;4911665;29;20201;-79
2022/12/24 13:51:49;;;;;;;11.03;10.10;;;11.40;99.90;;;;;;4906749;29;20231;-79
2022/12/24 13:54:21;;;;;;;11.10;10.30;;;11.40;99.90;;;;;;4902965;29;20203;-82
2022/12/24 13:56:48;;;;;;;10.83;10.03;;;11.40;99.90;;;;;;4909114;29;20202;-80
2022/12/24 13:59:27;;;;;;;10.90;10.10;;;11.40;99.90;;;;;;4916921;29;20269;-79
2022/12/24 14:01:56;;;;;;;10.67;9.97;;;11.40;99.90;;;;;;4922490;29;20232;-81
2022/12/24 14:04:27;;;;;;;10.83;10.13;;;11.40;99.90;;;;;;4908824;29;20262;-79
2022/12/24 14:06:57;;;;;;;10.90;10.20;;;11.50;99.90;;;;;;4909737;29;20213;-81
2022/12/24 14:09:25;;;;;;;10.67;9.97;;;11.50;99.90;;;;;;4910541;29;20265;-79
2022/12/24 14:12:30;;;;;;;10.60;9.90;;;11.50;99.90;;;;;;4919043;29;20237;-81
2022/12/24 14:14:56;;;;;;;10.30;9.60;;;11.60;99.90;;;;;;4915848;29;20670;-80
2022/12/24 14:17:28;;;;;;;10.87;9.97;;;11.60;99.90;;;;;;4909965;29;20198;-78
2022/12/24 14:19:57;;;;;;;10.40;9.60;;;11.60;99.90;;;;;;4906017;29;20267;-79
2022/12/24 14:22:29;;;;;;;10.60;9.87;;;11.50;99.90;;;;;;4914302;29;20226;-78
2022/12/24 14:24:58;;;;;;;10.73;9.93;;;11.60;99.90;;;;;;4906567;29;20215;-79
2022/12/24 14:27:32;;;;;;;10.77;9.93;;;11.60;99.90;;;;;;4907179;29;20202;-76
2022/12/24 14:30:04;;;;;;;10.73;9.83;;;11.60;99.90;;;;;;4905675;29;20202;-77
2022/12/24 14:32:36;;;;;;;10.83;9.90;;;11.50;99.90;;;;;;4899639;29;20219;-77
2022/12/24 14:35:09;;;;;;;11.10;10.40;;;11.50;99.90;;;;;;4903723;29;20738;-78
2022/12/24 14:37:36;;;;;;;11.30;10.40;;;11.50;99.90;;;;;;4908289;29;20209;-77
2022/12/24 14:40:04;;;;;;;11.40;10.50;;;11.40;99.90;;;;;;4905764;29;20233;-78
2022/12/24 14:42:40;;;;;;;11.03;10.33;;;11.40;99.90;;;;;;4902484;29;20226;-76
2022/12/24 14:45:17;;;;;;;10.53;9.77;;;11.40;99.90;;;;;;4907935;29;20222;-76
2022/12/24 14:47:53;;;;;;;10.63;9.93;;;11.30;99.90;;;;;;4905748;29;20206;-79
2022/12/24 14:50:42;;;;;;;10.93;10.13;;;11.30;99.90;;;;;;4901926;29;20258;-80
2022/12/24 14:53:21;;;;;;;10.80;9.97;;;11.20;99.90;;;;;;4907893;29;20272;-79
2022/12/24 14:55:49;;;;;;;10.67;9.90;;;11.10;99.90;;;;;;4907391;29;20205;-81
2022/12/24 14:58:24;;;;;;;10.53;9.73;;;11.10;99.90;;;;;;4904379;29;20293;-80
2022/12/24 15:00:53;;;;;;;11.57;10.67;;;11.10;99.90;;;;;;4903461;29;20233;-79
2022/12/24 15:03:22;;;;;;;11.00;10.20;;;11.00;99.90;;;;;;4907816;29;20209;-79
2022/12/24 15:05:52;;;;;;;10.87;9.97;;;11.00;99.90;;;;;;4907505;29;20769;-78
2022/12/24 15:08:28;;;;;;;10.87;10.07;;;10.90;99.90;;;;;;4908725;29;20201;-78
2022/12/24 15:11:00;;;;;;;10.93;10.17;;;10.80;99.90;;;;;;4906187;29;20217;-78
2022/12/24 15:13:32;;;;;;;10.53;9.67;;;10.80;99.90;;;;;;4908436;29;20205;-82
2022/12/24 15:16:00;;;;;;;10.57;9.87;;;10.70;99.90;;;;;;4904246;29;20726;-83
2022/12/24 15:18:32;;;;;;;10.97;10.17;;;10.60;99.90;;;;;;4906277;29;20663;-78
2022/12/24 15:21:02;;;;;;;11.27;10.47;;;10.60;99.90;;;;;;4912372;29;20288;-80
2022/12/24 15:23:31;;;;;;;11.50;10.50;;;10.50;99.90;;;;;;4898597;29;20219;-78
2022/12/24 15:26:19;;;;;;;10.93;10.03;;;10.50;99.90;;;;;;4901916;29;20647;-80
2022/12/24 15:28:46;;;;;;;11.17;10.27;;;10.50;99.90;;;;;;4899871;29;20742;-80
2022/12/24 15:31:14;;;;;;;10.93;10.10;;;10.40;99.90;;;;;;4902080;29;20630;-79
2022/12/24 15:33:45;;;;;;;11.03;10.23;;;10.40;99.90;;;;;;4924492;29;20256;-77
2022/12/24 15:36:14;;;;;;;12.43;11.23;;;10.30;99.90;;;;;;4902280;29;20296;-78
2022/12/24 15:38:43;;;;;;;11.63;10.73;;;10.30;99.90;;;;;;4903428;29;20197;-78
2022/12/24 15:41:19;;;;;;;11.97;10.97;;;10.20;99.90;;;;;;4904668;29;20280;-78
2022/12/24 15:43:48;;;;;;;13.03;11.80;;;10.10;99.90;;;;;;4903841;29;20225;-77
2022/12/24 15:46:20;;;;;;;13.20;12.07;;;10.00;99.90;;;;;;4906011;29;20781;-77
2022/12/24 15:48:49;;;;;;;11.83;10.93;;;9.90;99.90;;;;;;4911527;29;20217;-77
2022/12/24 15:51:23;;;;;;;12.73;11.60;;;9.80;99.90;;;;;;4902070;29;20292;-77
2022/12/24 15:53:55;;;;;;;13.03;11.93;;;9.70;99.90;;;;;;4892386;29;20217;-78
2022/12/24 15:56:32;;;;;;;15.27;13.43;;;9.60;99.90;;;;;;4903288;29;20213;-81